CST,Max TemperatureF,Mean TemperatureF,Min TemperatureF,Max Dew PointF,MeanDew PointF,Min DewpointF,Max Humidity, Mean Humidity, Min Humidity, Max Sea Level PressureIn, Mean Sea Level PressureIn, Min Sea Level PressureIn, Max VisibilityMiles, Mean VisibilityMiles, Min VisibilityMiles, Max Wind SpeedMPH, Mean Wind SpeedMPH, Max Gust SpeedMPH,PrecipitationIn, CloudCover, Events, WindDirDegrees
2013-1-1,33,24,16,32,23,11,100,88,70,30.29,30.19,30.11,10,9,4,12,6,17,0.00,7,Rain,355
2013-1-2,27,18,10,16,12,8,93,77,55,30.31,30.27,30.24,10,10,8,7,1,,0.00,0,,154
2013-1-3,38,26,15,25,20,12,91,77,56,30.41,30.34,30.24,10,10,10,8,2,,0.00,2,,270
2013-1-4,37,29,21,25,22,20,97,80,59,30.47,30.40,30.34,10,10,10,10,4,,0.00,1,,246
2013-1-5,40,30,21,31,26,19,91,77,59,30.34,30.26,30.13,10,10,10,6,2,,0.00,5,Rain,175
2013-1-6,37,30,20,32,25,19,95,75,62,30.42,30.25,30.10,10,10,10,18,7,23,0.00,4,,304
2013-1-7,41,29,17,28,23,18,100,85,58,30.44,30.35,30.19,10,9,7,10,2,,0.00,0,,149
2013-1-8,50,36,22,38,29,21,100,76,49,30.25,30.19,30.14,10,10,8,12,3,,0.00,3,,152
2013-1-9,57,46,34,47,40,33,100,89,44,30.49,30.33,30.20,10,7,0,8,3,,0.10,4,Fog-Rain,39
2013-1-10,60,50,40,61,48,34,100,95,75,30.46,30.03,29.78,10,4,0,15,8,23,0.71,8,Fog-Rain-Thunderstorm,113
2013-1-11,61,54,48,58,50,48,99,86,65,29.90,29.84,29.78,10,10,10,13,5,21,0.00,1,,174
2013-1-12,61,47,33,54,43,32,100,94,71,29.96,29.88,29.81,10,7,2,20,8,30,1.83,6,Rain,343
2013-1-13,32,26,19,32,24,15,100,88,74,30.38,30.11,29.90,10,10,6,18,13,24,0.01,7,Rain,326
2013-1-14,28,22,16,18,15,13,96,79,59,30.52,30.46,30.40,10,10,10,10,5,,0.00,2,,358
2013-1-15,30,24,17,23,19,15,94,80,63,30.44,30.32,30.16,10,10,10,15,7,,0.00,4,,11
2013-1-16,41,30,19,24,21,18,96,70,42,30.17,30.13,30.05,10,10,10,8,5,,0.00,2,,259
2013-1-17,41,33,24,32,26,19,94,74,44,30.51,30.34,30.15,10,10,10,16,7,,0.00,4,,340
2013-1-18,49,35,21,30,26,19,97,72,43,30.52,30.37,30.17,10,10,10,9,4,17,0.00,0,,179
2013-1-19,63,49,35,37,32,29,80,55,36,30.18,30.06,29.92,10,10,10,10,6,18,0.00,0,,228
2013-1-20,45,36,26,31,16,10,65,51,36,30.36,30.29,30.13,10,10,10,15,10,21,0.00,2,,342
2013-1-21,26,20,14,14,5,-3,74,51,29,30.42,30.36,30.30,10,10,10,17,11,25,0.00,4,Snow,313
2013-1-22,17,14,12,12,6,-2,94,68,45,30.52,30.45,30.41,10,8,1,9,4,,0.00,6,Snow,297
2013-1-23,41,26,10,21,16,8,96,71,42,30.40,30.29,30.17,10,10,10,15,2,21,0.00,0,,310
2013-1-24,27,21,16,16,8,1,67,53,42,30.64,30.48,30.29,10,10,10,16,12,23,0.00,3,,68
2013-1-25,42,34,27,21,15,6,61,48,40,30.28,30.18,30.12,10,10,10,10,6,,0.00,5,,276
2013-1-26,36,30,24,22,17,11,76,58,40,30.43,30.35,30.24,10,10,10,10,6,,0.00,0,,43
2013-1-27,49,36,25,49,35,20,100,95,75,30.33,30.15,30.00,10,7,2,13,7,17,0.15,7,Rain,142
2013-1-28,66,58,49,63,57,48,100,98,83,30.00,29.95,29.90,10,10,10,12,7,21,0.00,5,Rain,165
2013-1-29,66,60,52,62,58,53,100,94,78,29.87,29.63,29.47,10,8,2,17,9,30,2.01,7,Rain-Thunderstorm,187
2013-1-30,53,40,28,54,37,18,100,85,64,29.92,29.57,29.39,10,10,7,23,9,33,0.20,8,Rain-Snow,274
2013-1-31,34,24,11,28,17,0,100,68,55,30.39,30.06,29.93,10,8,0,23,14,32,0.00,7,Fog-Rain-Snow,284